Time;durP1;ratioP1;P1;durP2;ratioP2;P2;SDS_P1;SDS_P2;PMS_P1;PMS_P2;Temp;Humidity;BMP_temperature;BMP_pressure;BME280_temperature;BME280_humidity;BME280_pressure;Samples;Min_cycle;Max_cycle;Signal;HPM_P1;HPM_P2
2021/10/15 00:02:03;;;;;;;1.23;0.65;;;;;;;;;;4990628;28;20030;-93
2021/10/15 00:04:29;;;;;;;1.67;0.77;;;;;;;;;;4979051;28;20488;-94
2021/10/15 00:06:55;;;;;;;2.83;0.63;;;;;;;;;;4987238;28;20026;-94
2021/10/15 00:09:20;;;;;;;1.75;0.60;;;;;;;;;;4982512;28;20117;-94
2021/10/15 00:11:45;;;;;;;2.65;0.85;;;;;;;;;;4990629;28;20032;-93
2021/10/15 00:14:14;;;;;;;3.45;0.88;;;;;;;;;;4992671;28;20030;-93
2021/10/15 00:16:39;;;;;;;2.60;0.90;;;;;;;;;;4982754;28;20042;-94
2021/10/15 00:19:06;;;;;;;3.00;1.08;;;;;;;;;;4994553;28;20030;-93
2021/10/15 00:21:31;;;;;;;1.90;0.80;;;;;;;;;;4976346;28;20489;-93
2021/10/15 00:23:57;;;;;;;2.78;0.57;;;;;;;;;;4985414;28;20062;-94
2021/10/15 00:26:22;;;;;;;3.30;0.93;;;;;;;;;;4993460;28;20037;-94
2021/10/15 00:28:48;;;;;;;2.03;0.60;;;;;;;;;;4992429;28;20034;-95
2021/10/15 00:31:13;;;;;;;3.83;0.88;;;;;;;;;;4985231;28;20030;-94
2021/10/15 00:33:38;;;;;;;2.13;0.75;;;;;;;;;;4998147;28;20026;-93
2021/10/15 00:36:04;;;;;;;3.03;0.80;;;;;;;;;;4992802;28;20041;-93
2021/10/15 00:38:29;;;;;;;1.40;0.70;;;;;;;;;;4992506;28;20062;-94
2021/10/15 00:40:55;;;;;;;1.48;0.75;;;;;;;;;;4992971;28;20030;-93
2021/10/15 00:43:20;;;;;;;1.77;0.80;;;;;;;;;;4985429;28;20034;-94
2021/10/15 00:45:46;;;;;;;2.53;0.70;;;;;;;;;;4983800;28;20070;-95
2021/10/15 00:48:11;;;;;;;1.42;0.73;;;;;;;;;;4993043;28;20026;-94
2021/10/15 00:50:36;;;;;;;1.38;0.70;;;;;;;;;;4992446;28;20628;-91
2021/10/15 00:53:03;;;;;;;3.55;0.80;;;;;;;;;;4985716;28;20015;-94
2021/10/15 00:55:29;;;;;;;3.08;0.90;;;;;;;;;;4986853;28;20026;-93
2021/10/15 00:57:54;;;;;;;2.03;0.57;;;;;;;;;;4992597;28;20030;-94
2021/10/15 01:00:20;;;;;;;3.25;0.70;;;;;;;;;;4992706;28;20077;-94
2021/10/15 01:02:45;;;;;;;1.77;0.70;;;;;;;;;;4980974;28;20650;-92
2021/10/15 01:05:12;;;;;;;1.50;0.57;;;;;;;;;;4988261;28;20023;-93
2021/10/15 01:07:38;;;;;;;1.60;0.63;;;;;;;;;;4992585;28;20637;-93
2021/10/15 01:10:04;;;;;;;2.05;0.52;;;;;;;;;;4992456;28;20524;-93
2021/10/15 01:12:31;;;;;;;1.85;0.50;;;;;;;;;;4989388;28;20022;-93
2021/10/15 01:14:56;;;;;;;1.67;0.45;;;;;;;;;;4992762;28;20031;-93
2021/10/15 01:17:22;;;;;;;1.52;0.70;;;;;;;;;;4992679;28;20029;-94
2021/10/15 01:19:54;;;;;;;2.25;0.60;;;;;;;;;;4991980;28;20066;-93
2021/10/15 01:22:20;;;;;;;2.05;0.65;;;;;;;;;;4988521;28;20034;-95
2021/10/15 01:24:45;;;;;;;3.25;0.60;;;;;;;;;;4992802;28;20018;-94
2021/10/15 01:27:11;;;;;;;2.90;0.70;;;;;;;;;;4992816;28;20041;-93
2021/10/15 01:29:38;;;;;;;2.85;0.50;;;;;;;;;;4991663;28;20493;-94
2021/10/15 01:32:06;;;;;;;2.67;0.82;;;;;;;;;;4992142;28;20026;-93
2021/10/15 01:34:32;;;;;;;1.17;0.70;;;;;;;;;;4979669;28;20061;-94
2021/10/15 01:36:57;;;;;;;2.08;0.75;;;;;;;;;;4995891;28;20118;-93
2021/10/15 01:39:22;;;;;;;5.32;1.00;;;;;;;;;;4995920;28;20073;-92
2021/10/15 01:41:48;;;;;;;3.55;1.00;;;;;;;;;;4985478;28;20031;-94
2021/10/15 01:44:13;;;;;;;9.15;1.35;;;;;;;;;;4992361;28;20058;-93
2021/10/15 01:46:42;;;;;;;3.78;0.77;;;;;;;;;;4995066;28;20161;-94
2021/10/15 01:49:08;;;;;;;3.10;0.77;;;;;;;;;;4995774;28;20516;-93
2021/10/15 01:51:33;;;;;;;4.13;0.80;;;;;;;;;;4993704;28;20022;-92
2021/10/15 01:53:58;;;;;;;1.85;0.57;;;;;;;;;;4993116;28;20031;-92
2021/10/15 01:56:24;;;;;;;2.08;0.77;;;;;;;;;;4999181;28;20031;-93
2021/10/15 01:58:49;;;;;;;4.10;0.90;;;;;;;;;;4996008;28;20026;-93
2021/10/15 02:01:15;;;;;;;3.67;0.85;;;;;;;;;;5003014;28;20090;-94
2021/10/15 02:03:40;;;;;;;2.00;0.70;;;;;;;;;;4995206;28;20045;-93
2021/10/15 02:06:06;;;;;;;2.72;0.90;;;;;;;;;;4990285;28;20060;-92
2021/10/15 02:08:32;;;;;;;3.03;0.80;;;;;;;;;;4994715;28;20037;-94
2021/10/15 02:10:57;;;;;;;3.35;1.00;;;;;;;;;;4993856;28;20030;-92
2021/10/15 02:13:24;;;;;;;1.90;1.02;;;;;;;;;;4994879;28;20028;-93
2021/10/15 02:15:49;;;;;;;4.45;1.00;;;;;;;;;;4995478;28;20027;-93
2021/10/15 02:18:16;;;;;;;4.15;1.17;;;;;;;;;;4995708;28;20041;-93
2021/10/15 02:20:42;;;;;;;3.08;1.20;;;;;;;;;;4990495;28;20043;-94
2021/10/15 02:23:08;;;;;;;5.32;1.77;;;;;;;;;;4976245;28;20038;-94
2021/10/15 02:25:33;;;;;;;3.78;1.50;;;;;;;;;;4979274;28;20061;-93
2021/10/15 02:27:58;;;;;;;5.00;1.48;;;;;;;;;;4995272;28;20026;-93
2021/10/15 02:30:24;;;;;;;9.32;1.95;;;;;;;;;;4994292;28;20023;-94
2021/10/15 02:32:49;;;;;;;5.82;2.13;;;;;;;;;;4987235;28;20484;-93
2021/10/15 02:35:16;;;;;;;5.35;1.98;;;;;;;;;;4995845;28;20081;-93
2021/10/15 02:37:42;;;;;;;9.00;2.30;;;;;;;;;;4994938;28;20035;-93
2021/10/15 02:40:09;;;;;;;4.40;1.60;;;;;;;;;;4995841;28;20045;-92
2021/10/15 02:42:35;;;;;;;4.13;1.77;;;;;;;;;;4978193;28;20113;-93
2021/10/15 02:45:00;;;;;;;8.13;1.63;;;;;;;;;;4989623;28;20030;-94
2021/10/15 02:47:25;;;;;;;4.55;1.60;;;;;;;;;;4991956;28;20040;-93
2021/10/15 02:49:51;;;;;;;5.03;1.73;;;;;;;;;;4994924;28;20026;-94
2021/10/15 02:52:18;;;;;;;7.72;2.10;;;;;;;;;;4993634;28;20138;-94
2021/10/15 02:54:43;;;;;;;3.92;1.80;;;;;;;;;;4985190;28;20118;-95
2021/10/15 02:57:09;;;;;;;3.33;1.40;;;;;;;;;;4985317;28;20361;-94
2021/10/15 02:59:34;;;;;;;6.25;2.22;;;;;;;;;;4994199;28;20026;-93
2021/10/15 03:02:00;;;;;;;4.72;1.90;;;;;;;;;;4990017;28;20089;-94
2021/10/15 03:04:25;;;;;;;8.82;2.10;;;;;;;;;;4980404;28;20029;-93
2021/10/15 03:06:52;;;;;;;7.43;2.30;;;;;;;;;;4993050;28;20081;-93
2021/10/15 03:09:17;;;;;;;5.57;1.83;;;;;;;;;;4993153;28;20030;-94
2021/10/15 03:11:43;;;;;;;6.88;2.20;;;;;;;;;;4990852;28;20395;-94
2021/10/15 03:14:08;;;;;;;6.93;2.38;;;;;;;;;;4993913;28;20026;-93
2021/10/15 03:16:34;;;;;;;7.75;2.10;;;;;;;;;;4988728;28;20105;-94
2021/10/15 03:18:59;;;;;;;5.45;2.20;;;;;;;;;;4989292;28;20058;-93
2021/10/15 03:21:24;;;;;;;5.25;2.30;;;;;;;;;;4986151;28;20030;-94
2021/10/15 03:23:50;;;;;;;9.88;2.55;;;;;;;;;;4989164;28;20030;-93
2021/10/15 03:26:15;;;;;;;9.25;2.75;;;;;;;;;;4994673;28;20034;-94
2021/10/15 03:28:40;;;;;;;7.70;2.25;;;;;;;;;;4993135;28;20041;-93
2021/10/15 03:31:06;;;;;;;6.60;2.47;;;;;;;;;;4977799;28;20481;-93
2021/10/15 03:33:31;;;;;;;7.70;2.30;;;;;;;;;;4986855;28;20112;-94
2021/10/15 03:35:57;;;;;;;6.25;2.55;;;;;;;;;;4995547;28;20046;-94
2021/10/15 03:38:22;;;;;;;7.80;2.63;;;;;;;;;;4994027;28;20488;-93
2021/10/15 03:40:48;;;;;;;7.70;2.30;;;;;;;;;;4993424;28;20485;-93
2021/10/15 03:43:13;;;;;;;4.65;2.33;;;;;;;;;;4993793;28;20544;-93
2021/10/15 03:45:38;;;;;;;7.50;3.00;;;;;;;;;;4993436;28;20030;-94
2021/10/15 03:48:04;;;;;;;8.85;2.10;;;;;;;;;;4993495;28;20096;-92
2021/10/15 03:50:30;;;;;;;7.97;2.80;;;;;;;;;;4994146;28;20701;-94
2021/10/15 03:52:57;;;;;;;8.75;2.60;;;;;;;;;;4988031;28;20038;-94
2021/10/15 03:55:24;;;;;;;7.35;2.47;;;;;;;;;;4996133;28;20026;-94
2021/10/15 03:57:49;;;;;;;7.18;2.58;;;;;;;;;;5013658;28;20030;-93
2021/10/15 04:00:15;;;;;;;6.25;2.33;;;;;;;;;;5014119;28;20033;-93
2021/10/15 04:02:45;;;;;;;6.13;2.30;;;;;;;;;;4978866;28;20027;-95
2021/10/15 04:05:11;;;;;;;9.23;2.60;;;;;;;;;;4975176;28;20038;-93
2021/10/15 04:07:37;;;;;;;8.05;2.47;;;;;;;;;;4992480;28;20435;-92
2021/10/15 04:10:04;;;;;;;10.02;2.55;;;;;;;;;;4975553;28;20057;-94
2021/10/15 04:12:30;;;;;;;6.68;2.85;;;;;;;;;;4975394;28;20393;-94
2021/10/15 04:14:55;;;;;;;5.38;2.17;;;;;;;;;;4992935;28;20113;-93
2021/10/15 04:17:20;;;;;;;5.80;2.13;;;;;;;;;;4992737;28;20041;-95
2021/10/15 04:19:46;;;;;;;8.48;2.15;;;;;;;;;;4993317;28;20030;-93
2021/10/15 04:22:11;;;;;;;7.68;1.88;;;;;;;;;;4991794;28;20117;-94
2021/10/15 04:24:38;;;;;;;4.75;1.75;;;;;;;;;;4983780;28;20594;-93
2021/10/15 04:27:04;;;;;;;4.35;1.73;;;;;;;;;;4990529;28;20081;-94
2021/10/15 04:29:29;;;;;;;4.43;2.00;;;;;;;;;;4977395;28;20023;-93
2021/10/15 04:31:55;;;;;;;5.20;2.15;;;;;;;;;;4986684;28;20026;-94
2021/10/15 04:34:20;;;;;;;4.53;1.67;;;;;;;;;;4992870;28;20051;-93
2021/10/15 04:36:45;;;;;;;7.70;2.05;;;;;;;;;;4978103;28;20045;-92
2021/10/15 04:39:11;;;;;;;5.55;2.67;;;;;;;;;;4985761;28;20031;-93
2021/10/15 04:41:36;;;;;;;6.78;2.40;;;;;;;;;;4993983;28;20026;-94
2021/10/15 04:44:02;;;;;;;7.00;2.40;;;;;;;;;;4980070;28;20077;-94
2021/10/15 04:46:27;;;;;;;10.48;2.58;;;;;;;;;;4992439;28;20700;-94
2021/10/15 04:48:53;;;;;;;5.88;2.50;;;;;;;;;;4993899;28;20035;-91
2021/10/15 04:51:19;;;;;;;11.10;3.40;;;;;;;;;;4994735;28;20118;-95
2021/10/15 04:53:44;;;;;;;8.05;3.10;;;;;;;;;;4981185;28;20033;-93
2021/10/15 04:56:09;;;;;;;8.25;2.90;;;;;;;;;;4979930;28;20027;-93
2021/10/15 04:58:35;;;;;;;7.50;2.70;;;;;;;;;;4981552;28;20098;-93
2021/10/15 05:01:00;;;;;;;8.43;3.08;;;;;;;;;;4979221;28;20034;-91
2021/10/15 05:03:26;;;;;;;9.18;2.60;;;;;;;;;;4981185;28;20704;-90
2021/10/15 05:05:51;;;;;;;8.73;2.90;;;;;;;;;;4985979;28;20081;-91
2021/10/15 05:08:17;;;;;;;11.60;3.83;;;;;;;;;;4989978;28;20468;-91
2021/10/15 05:10:44;;;;;;;6.10;2.58;;;;;;;;;;4983816;28;20027;-90
2021/10/15 05:13:11;;;;;;;8.88;2.70;;;;;;;;;;4987115;28;20117;-90
2021/10/15 05:15:37;;;;;;;8.90;2.80;;;;;;;;;;4986732;28;20030;-91
2021/10/15 05:18:03;;;;;;;8.95;3.30;;;;;;;;;;4993404;28;20027;-91
2021/10/15 05:20:28;;;;;;;10.07;3.25;;;;;;;;;;4990533;28;20034;-90
2021/10/15 05:22:53;;;;;;;7.57;2.42;;;;;;;;;;4994652;28;20025;-90
2021/10/15 05:25:19;;;;;;;7.00;2.88;;;;;;;;;;4989060;28;20025;-91
2021/10/15 05:27:44;;;;;;;6.57;2.40;;;;;;;;;;4986729;28;20335;-92
2021/10/15 05:30:11;;;;;;;9.25;2.78;;;;;;;;;;4993499;28;20113;-91
2021/10/15 05:32:37;;;;;;;9.50;2.53;;;;;;;;;;4991267;28;20018;-91
2021/10/15 05:35:03;;;;;;;9.23;2.70;;;;;;;;;;4996085;28;20085;-91
2021/10/15 05:37:29;;;;;;;9.98;3.00;;;;;;;;;;4981105;28;20038;-91
2021/10/15 05:39:54;;;;;;;6.22;2.58;;;;;;;;;;4985619;28;20030;-91
2021/10/15 05:42:20;;;;;;;5.78;2.58;;;;;;;;;;4990944;28;20410;-91
2021/10/15 05:44:46;;;;;;;7.05;2.33;;;;;;;;;;4983454;28;20081;-91
2021/10/15 05:47:11;;;;;;;6.75;3.20;;;;;;;;;;4976174;28;20026;-90
2021/10/15 05:49:39;;;;;;;7.75;3.33;;;;;;;;;;4987493;28;20088;-90
2021/10/15 05:52:09;;;;;;;6.95;2.70;;;;;;;;;;4994561;28;20018;-93
2021/10/15 05:57:28;;;;;;;10.13;2.80;;;;;;;;;;4994146;28;20027;-91
2021/10/15 05:59:54;;;;;;;10.40;3.45;;;;;;;;;;4990344;28;20042;-91
2021/10/15 06:02:19;;;;;;;10.98;3.03;;;;;;;;;;4992569;28;20024;-91
2021/10/15 06:15:37;;;;;;;;;;;;;;;;;;5010462;28;20042;-92
2021/10/15 06:18:11;;;;;;;9.02;3.05;;;;;;;;;;4987655;28;19965;-92
2021/10/15 06:20:37;;;;;;;6.78;2.70;;;;;;;;;;4979865;28;20026;-90
2021/10/15 06:23:03;;;;;;;9.60;3.13;;;;;;;;;;4993153;28;20061;-91
2021/10/15 06:25:28;;;;;;;9.00;3.45;;;;;;;;;;4992444;28;20057;-89
2021/10/15 06:27:59;;;;;;;10.77;4.75;;;;;;;;;;4994141;28;20088;-92
2021/10/15 06:30:24;;;;;;;12.45;3.83;;;;;;;;;;4993462;28;20523;-91
2021/10/15 06:32:49;;;;;;;10.02;4.32;;;;;;;;;;4989028;28;20034;-91
2021/10/15 06:35:15;;;;;;;7.40;3.20;;;;;;;;;;4990593;28;20043;-91
2021/10/15 06:37:40;;;;;;;8.70;3.85;;;;;;;;;;4974880;28;20607;-91
2021/10/15 06:40:06;;;;;;;17.50;4.38;;;;;;;;;;4990860;28;20045;-91
2021/10/15 06:42:31;;;;;;;12.13;4.03;;;;;;;;;;4983054;28;20038;-91
2021/10/15 06:44:57;;;;;;;10.30;4.25;;;;;;;;;;5005513;28;20031;-91
2021/10/15 06:47:23;;;;;;;9.80;4.25;;;;;;;;;;4991363;28;20075;-90
2021/10/15 06:49:48;;;;;;;11.98;4.80;;;;;;;;;;4993884;28;20061;-92
2021/10/15 06:52:13;;;;;;;13.35;5.07;;;;;;;;;;4992486;28;20042;-92
2021/10/15 06:54:39;;;;;;;9.75;4.30;;;;;;;;;;4992858;28;20136;-93
2021/10/15 06:57:04;;;;;;;11.13;4.53;;;;;;;;;;4989457;28;20049;-93
2021/10/15 06:59:30;;;;;;;12.98;5.07;;;;;;;;;;4992550;28;20085;-92
2021/10/15 07:01:55;;;;;;;17.77;4.93;;;;;;;;;;4985146;28;20027;-93
2021/10/15 07:04:21;;;;;;;8.43;4.60;;;;;;;;;;4984791;28;20019;-92
2021/10/15 07:06:46;;;;;;;8.45;4.30;;;;;;;;;;4992503;28;20026;-93
2021/10/15 07:09:11;;;;;;;11.18;4.32;;;;;;;;;;4993636;28;20061;-93
2021/10/15 07:11:38;;;;;;;12.32;5.25;;;;;;;;;;4990724;28;20045;-93
2021/10/15 07:14:04;;;;;;;10.95;4.88;;;;;;;;;;4993967;28;20030;-93
2021/10/15 07:16:30;;;;;;;15.48;4.78;;;;;;;;;;4993509;28;20136;-91
2021/10/15 07:18:55;;;;;;;8.35;4.30;;;;;;;;;;4991899;28;20081;-92
2021/10/15 07:21:21;;;;;;;8.30;4.15;;;;;;;;;;4989345;28;20034;-92
2021/10/15 07:23:46;;;;;;;7.32;3.88;;;;;;;;;;4991899;28;20022;-92
2021/10/15 07:26:11;;;;;;;11.60;4.05;;;;;;;;;;4992732;28;20022;-92
2021/10/15 07:28:37;;;;;;;7.20;3.53;;;;;;;;;;4992820;28;20104;-92
2021/10/15 07:31:02;;;;;;;7.18;3.55;;;;;;;;;;4992742;28;20026;-92
2021/10/15 07:33:28;;;;;;;13.98;4.28;;;;;;;;;;4990016;28;20149;-93
2021/10/15 07:35:53;;;;;;;10.02;3.50;;;;;;;;;;4984616;28;20046;-91
2021/10/15 07:38:19;;;;;;;6.80;3.20;;;;;;;;;;4992158;28;20630;-91
2021/10/15 07:40:44;;;;;;;7.07;3.50;;;;;;;;;;4991312;28;20039;-92
2021/10/15 07:43:09;;;;;;;8.98;3.22;;;;;;;;;;4988179;28;20018;-91
2021/10/15 07:45:35;;;;;;;8.13;3.20;;;;;;;;;;4991571;28;20121;-92
2021/10/15 07:48:00;;;;;;;10.75;3.58;;;;;;;;;;4991006;28;20030;-90
2021/10/15 07:50:26;;;;;;;6.22;3.45;;;;;;;;;;4991964;28;20030;-90
2021/10/15 07:52:52;;;;;;;6.28;2.90;;;;;;;;;;4989840;28;20018;-93
2021/10/15 07:55:17;;;;;;;7.80;3.10;;;;;;;;;;4994149;28;20034;-91
2021/10/15 07:57:43;;;;;;;9.40;2.88;;;;;;;;;;4992463;28;20026;-90
2021/10/15 08:00:11;;;;;;;9.52;3.20;;;;;;;;;;4989206;28;21627;-92
2021/10/15 08:02:36;;;;;;;6.40;2.92;;;;;;;;;;4982339;28;20054;-91
2021/10/15 08:05:03;;;;;;;7.78;2.88;;;;;;;;;;4992033;28;20538;-91
2021/10/15 08:07:29;;;;;;;9.30;2.70;;;;;;;;;;4984979;28;20066;-92
2021/10/15 08:09:54;;;;;;;5.50;2.55;;;;;;;;;;5007303;28;20069;-92
2021/10/15 08:12:19;;;;;;;6.72;2.22;;;;;;;;;;4990414;28;20150;-89
2021/10/15 08:14:45;;;;;;;7.25;2.05;;;;;;;;;;4985420;28;20450;-91
2021/10/15 08:17:10;;;;;;;6.55;2.40;;;;;;;;;;4979931;28;20026;-91
2021/10/15 08:19:38;;;;;;;6.32;2.03;;;;;;;;;;4979741;28;20026;-92
2021/10/15 08:22:03;;;;;;;9.52;2.83;;;;;;;;;;4983121;28;20041;-92
2021/10/15 08:24:32;;;;;;;7.85;2.75;;;;;;;;;;4987000;28;20473;-91
2021/10/15 08:26:57;;;;;;;6.72;2.90;;;;;;;;;;4971877;28;20058;-91
2021/10/15 08:29:23;;;;;;;8.57;2.78;;;;;;;;;;5006599;28;20081;-90
2021/10/15 08:31:52;;;;;;;8.93;3.55;;;;;;;;;;4988901;28;20038;-90
2021/10/15 08:34:19;;;;;;;9.95;3.13;;;;;;;;;;4988829;28;20026;-90
2021/10/15 08:36:47;;;;;;;7.35;2.67;;;;;;;;;;4991130;28;20022;-91
2021/10/15 08:39:17;;;;;;;11.10;3.40;;;;;;;;;;4989785;28;20018;-91
2021/10/15 08:41:42;;;;;;;10.18;3.47;;;;;;;;;;4989502;28;20088;-91
2021/10/15 08:44:08;;;;;;;7.80;2.78;;;;;;;;;;4978149;28;20035;-91
2021/10/15 08:46:33;;;;;;;8.52;2.42;;;;;;;;;;4985997;28;20030;-92
2021/10/15 08:48:59;;;;;;;4.75;1.58;;;;;;;;;;4989446;28;20026;-92
2021/10/15 08:51:24;;;;;;;5.22;1.50;;;;;;;;;;4978091;28;20042;-92
2021/10/15 08:53:55;;;;;;;2.47;1.20;;;;;;;;;;4978520;28;20034;-92
2021/10/15 08:56:23;;;;;;;5.43;1.25;;;;;;;;;;4993136;28;20081;-92
2021/10/15 08:58:55;;;;;;;4.05;1.35;;;;;;;;;;4990661;28;20098;-92
2021/10/15 09:01:21;;;;;;;11.18;1.85;;;;;;;;;;4981753;28;20019;-93
2021/10/15 09:03:46;;;;;;;4.18;1.33;;;;;;;;;;4984511;28;20444;-93
2021/10/15 09:06:12;;;;;;;12.07;2.00;;;;;;;;;;4989881;28;20034;-94
2021/10/15 09:09:03;;;;;;;4.05;1.70;;;;;;;;;;4987299;28;20042;-93
2021/10/15 09:11:40;;;;;;;3.65;1.38;;;;;;;;;;4988660;28;20384;-93
2021/10/15 09:14:10;;;;;;;4.70;1.30;;;;;;;;;;5013195;28;20019;-93
2021/10/15 09:16:58;;;;;;;3.88;1.20;;;;;;;;;;4998525;28;20035;-92
2021/10/15 09:19:40;;;;;;;6.68;1.23;;;;;;;;;;5002897;28;20038;-92
2021/10/15 09:22:19;;;;;;;5.18;0.80;;;;;;;;;;5010276;28;20034;-93
2021/10/15 09:25:09;;;;;;;3.53;0.80;;;;;;;;;;4984004;28;20045;-91
2021/10/15 09:27:43;;;;;;;5.65;1.15;;;;;;;;;;4987511;28;20039;-92
2021/10/15 09:30:13;;;;;;;10.88;1.08;;;;;;;;;;4984773;28;20030;-92
2021/10/15 09:32:46;;;;;;;5.50;1.10;;;;;;;;;;5002982;28;20036;-93
2021/10/15 09:35:15;;;;;;;3.25;1.13;;;;;;;;;;4983978;28;20050;-92
2021/10/15 09:37:44;;;;;;;6.65;1.27;;;;;;;;;;4980893;28;20030;-91
2021/10/15 09:40:16;;;;;;;4.10;0.90;;;;;;;;;;4981314;28;20026;-92
2021/10/15 09:42:49;;;;;;;6.57;1.20;;;;;;;;;;4991383;28;20477;-91
2021/10/15 09:45:18;;;;;;;7.22;1.10;;;;;;;;;;4979801;28;20105;-91
2021/10/15 09:47:54;;;;;;;10.02;1.15;;;;;;;;;;4985634;28;20116;-92
2021/10/15 09:50:22;;;;;;;8.32;1.50;;;;;;;;;;4990480;28;20473;-92
2021/10/15 09:52:50;;;;;;;3.53;0.85;;;;;;;;;;4990708;28;20041;-92
2021/10/15 09:55:28;;;;;;;4.97;1.00;;;;;;;;;;4988654;28;20105;-91
2021/10/15 09:57:55;;;;;;;5.45;1.48;;;;;;;;;;4994093;28;20138;-91
2021/10/15 10:00:31;;;;;;;4.63;1.38;;;;;;;;;;4992514;28;20038;-91
2021/10/15 10:02:57;;;;;;;4.93;1.30;;;;;;;;;;4996585;28;20045;-89
2021/10/15 10:05:22;;;;;;;3.47;1.35;;;;;;;;;;4991675;28;20026;-90
2021/10/15 10:07:50;;;;;;;3.30;1.05;;;;;;;;;;4993238;28;20044;-91
2021/10/15 10:10:37;;;;;;;5.22;1.30;;;;;;;;;;4990503;28;20031;-91
2021/10/15 10:13:04;;;;;;;7.82;1.58;;;;;;;;;;5009832;28;20046;-90
2021/10/15 10:15:32;;;;;;;7.18;1.60;;;;;;;;;;4997065;28;20027;-89
2021/10/15 10:21:09;;;;;;;6.28;1.60;;;;;;;;;;4993057;28;20042;-91
2021/10/15 10:23:47;;;;;;;5.82;1.33;;;;;;;;;;4982185;28;20065;-92
2021/10/15 10:26:18;;;;;;;8.48;1.42;;;;;;;;;;5009679;28;20042;-92
2021/10/15 10:28:44;;;;;;;7.10;1.30;;;;;;;;;;4993640;28;20039;-91
2021/10/15 10:31:23;;;;;;;5.60;1.40;;;;;;;;;;4991776;28;20117;-91
2021/10/15 10:34:00;;;;;;;6.55;1.45;;;;;;;;;;4989491;28;20041;-91
2021/10/15 10:36:33;;;;;;;7.05;1.40;;;;;;;;;;4981225;28;20074;-91
2021/10/15 10:39:18;;;;;;;4.50;1.05;;;;;;;;;;4990405;28;20026;-90
2021/10/15 10:42:00;;;;;;;;;;;;;;;;;;4997307;28;20401;-92
2021/10/15 10:44:26;;;;;;;5.50;1.30;;;;;;;;;;4997875;28;19917;-90
2021/10/15 10:47:14;;;;;;;6.63;1.40;;;;;;;;;;4994127;28;20036;-91
2021/10/15 10:49:41;;;;;;;9.88;1.58;;;;;;;;;;5002250;28;20038;-91
2021/10/15 10:52:15;;;;;;;3.97;1.27;;;;;;;;;;4990748;28;20045;-91
2021/10/15 10:54:42;;;;;;;6.20;1.33;;;;;;;;;;4990729;28;20030;-91
2021/10/15 10:57:13;;;;;;;6.07;1.30;;;;;;;;;;4995791;28;20030;-91
2021/10/15 10:59:39;;;;;;;7.50;1.40;;;;;;;;;;4996885;28;20042;-90
2021/10/15 11:02:10;;;;;;;5.53;1.20;;;;;;;;;;4999490;28;20403;-90
2021/10/15 11:04:41;;;;;;;7.03;1.52;;;;;;;;;;4992800;28;20030;-92
2021/10/15 11:07:17;;;;;;;4.70;1.27;;;;;;;;;;4989408;28;20744;-91
2021/10/15 11:09:48;;;;;;;4.38;1.05;;;;;;;;;;4992721;28;20034;-90
2021/10/15 11:12:22;;;;;;;7.20;1.10;;;;;;;;;;4994719;28;20030;-90
2021/10/15 11:14:56;;;;;;;6.45;1.30;;;;;;;;;;4981612;28;20042;-92
2021/10/15 11:17:47;;;;;;;8.60;1.38;;;;;;;;;;4996426;28;20041;-88
2021/10/15 11:20:21;;;;;;;5.20;1.13;;;;;;;;;;4993904;28;20049;-88
2021/10/15 11:22:56;;;;;;;4.70;1.20;;;;;;;;;;4988823;28;20038;-89
2021/10/15 11:25:25;;;;;;;6.93;1.20;;;;;;;;;;4983282;28;20031;-89
2021/10/15 11:27:54;;;;;;;5.80;0.98;;;;;;;;;;4988024;28;20117;-88
2021/10/15 11:30:22;;;;;;;5.53;1.00;;;;;;;;;;5003256;28;20030;-88
2021/10/15 11:32:49;;;;;;;3.75;1.00;;;;;;;;;;4992112;28;20026;-89
2021/10/15 11:35:21;;;;;;;5.20;0.90;;;;;;;;;;4985870;28;20046;-88
2021/10/15 11:37:51;;;;;;;8.18;1.48;;;;;;;;;;5005975;28;20072;-88
2021/10/15 11:40:42;;;;;;;11.90;1.38;;;;;;;;;;4991751;28;20088;-88
2021/10/15 11:43:11;;;;;;;6.70;1.45;;;;;;;;;;4999086;28;20045;-89
2021/10/15 11:45:45;;;;;;;8.23;1.48;;;;;;;;;;4988831;28;20095;-88
2021/10/15 11:48:14;;;;;;;5.07;1.00;;;;;;;;;;4998798;28;20029;-89
2021/10/15 11:50:40;;;;;;;6.82;1.08;;;;;;;;;;4994562;28;20031;-88
2021/10/15 11:53:06;;;;;;;6.57;1.13;;;;;;;;;;4994352;28;20114;-89
2021/10/15 11:55:37;;;;;;;5.80;1.30;;;;;;;;;;4991924;28;20069;-88
2021/10/15 11:58:29;;;;;;;6.03;1.55;;;;;;;;;;4991395;28;20102;-89
2021/10/15 12:01:08;;;;;;;8.02;1.23;;;;;;;;;;4987792;28;20092;-89
2021/10/15 12:03:40;;;;;;;7.00;1.20;;;;;;;;;;4994463;28;20019;-89
2021/10/15 12:06:24;;;;;;;9.45;1.38;;;;;;;;;;4997680;28;20030;-90
2021/10/15 12:08:50;;;;;;;;;;;;;;;;;;4988918;28;20048;-89
2021/10/15 12:11:22;;;;;;;6.40;0.95;;;;;;;;;;4998312;28;19972;-91
2021/10/15 12:13:48;;;;;;;4.32;0.95;;;;;;;;;;4995235;28;20034;-89
2021/10/15 12:16:42;;;;;;;5.05;1.00;;;;;;;;;;4997845;28;20083;-90
2021/10/15 12:19:32;;;;;;;7.05;2.08;;;;;;;;;;5007411;28;20038;-89
2021/10/15 12:22:00;;;;;;;3.13;0.80;;;;;;;;;;5002234;28;20033;-90
2021/10/15 12:24:25;;;;;;;11.98;1.88;;;;;;;;;;4988567;28;20023;-91
2021/10/15 12:27:03;;;;;;;4.85;1.40;;;;;;;;;;4998303;28;20495;-90
2021/10/15 12:29:30;;;;;;;9.65;1.58;;;;;;;;;;4983837;28;20068;-90
2021/10/15 12:32:16;;;;;;;6.75;1.42;;;;;;;;;;4990891;28;20019;-90
2021/10/15 12:35:02;;;;;;;4.63;1.10;;;;;;;;;;4990377;28;20658;-91
2021/10/15 12:37:28;;;;;;;8.15;1.10;;;;;;;;;;4989452;28;20042;-90
2021/10/15 12:40:40;;;;;;;9.93;1.20;;;;;;;;;;4986545;28;20038;-89
2021/10/15 12:43:16;;;;;;;8.27;1.20;;;;;;;;;;4954045;28;20436;-89
2021/10/15 12:45:50;;;;;;;7.80;1.23;;;;;;;;;;4984330;28;20034;-90
2021/10/15 12:48:17;;;;;;;6.93;1.35;;;;;;;;;;4976782;28;20386;-90
2021/10/15 12:51:03;;;;;;;6.45;1.25;;;;;;;;;;4999029;28;20117;-89
2021/10/15 12:53:39;;;;;;;9.27;1.40;;;;;;;;;;5007051;28;20577;-89
2021/10/15 12:56:19;;;;;;;4.88;0.98;;;;;;;;;;4994172;28;20092;-88
2021/10/15 12:58:54;;;;;;;11.35;1.25;;;;;;;;;;4990170;28;20037;-91
2021/10/15 13:01:25;;;;;;;7.45;1.30;;;;;;;;;;4982943;28;20031;-88
2021/10/15 13:03:50;;;;;;;8.10;1.33;;;;;;;;;;4987554;28;20034;-90
2021/10/15 13:06:16;;;;;;;6.30;1.63;;;;;;;;;;4986314;28;20033;-93
2021/10/15 13:08:45;;;;;;;6.38;1.30;;;;;;;;;;4982675;28;20100;-91
2021/10/15 13:11:11;;;;;;;5.57;1.50;;;;;;;;;;4979520;28;20349;-91
2021/10/15 13:13:36;;;;;;;5.43;1.20;;;;;;;;;;4981766;28;20108;-93
2021/10/15 13:16:01;;;;;;;12.10;1.73;;;;;;;;;;4985703;28;20030;-92
2021/10/15 13:18:27;;;;;;;5.55;1.40;;;;;;;;;;4989283;28;20027;-91
2021/10/15 13:20:52;;;;;;;7.15;1.20;;;;;;;;;;4991630;28;20039;-93
2021/10/15 13:23:18;;;;;;;4.93;0.70;;;;;;;;;;4985985;28;20038;-91
2021/10/15 13:25:43;;;;;;;6.85;0.90;;;;;;;;;;4973128;28;20027;-92
2021/10/15 13:28:08;;;;;;;3.65;1.02;;;;;;;;;;4985965;28;20117;-93
2021/10/15 13:30:35;;;;;;;6.30;1.23;;;;;;;;;;4986246;28;20027;-92
2021/10/15 13:33:02;;;;;;;5.65;1.30;;;;;;;;;;4996035;28;20030;-92
2021/10/15 13:35:28;;;;;;;7.90;1.02;;;;;;;;;;4993411;28;20046;-91
2021/10/15 13:38:07;;;;;;;6.00;0.98;;;;;;;;;;4993927;28;20121;-92
2021/10/15 13:40:44;;;;;;;5.95;1.05;;;;;;;;;;5004062;28;20436;-92
2021/10/15 13:45:39;;;;;;;5.82;1.20;;;;;;;;;;5003083;28;20145;-92
2021/10/15 13:50:48;;;;;;;6.97;1.40;;;;;;;;;;4997244;28;20583;-93
2021/10/15 13:53:14;;;;;;;6.53;1.15;;;;;;;;;;4994434;28;20069;-92
2021/10/15 13:56:03;;;;;;;5.78;0.88;;;;;;;;;;4992389;28;20041;-92
2021/10/15 14:01:03;;;;;;;3.05;0.98;;;;;;;;;;4984673;28;20031;-90
2021/10/15 14:06:15;;;;;;;5.10;0.70;;;;;;;;;;5008129;28;20044;-90
2021/10/15 14:08:40;;;;;;;0.90;0.47;;;;;;;;;;4991041;28;20125;-90
2021/10/15 14:11:06;;;;;;;6.07;1.00;;;;;;;;;;4990738;28;20030;-89
2021/10/15 14:13:31;;;;;;;4.05;0.63;;;;;;;;;;4990756;28;20025;-88
2021/10/15 14:15:58;;;;;;;4.35;0.80;;;;;;;;;;4991477;28;20080;-89
2021/10/15 14:18:23;;;;;;;2.95;1.50;;;;;;;;;;4987731;28;20046;-87
2021/10/15 14:20:49;;;;;;;2.15;0.43;;;;;;;;;;4990806;28;20113;-86
2021/10/15 14:23:14;;;;;;;2.20;0.43;;;;;;;;;;4992533;28;20034;-89
2021/10/15 14:25:39;;;;;;;0.70;0.35;;;;;;;;;;4992268;28;20037;-89
2021/10/15 14:28:05;;;;;;;1.50;0.35;;;;;;;;;;4990717;28;20033;-89
2021/10/15 14:30:30;;;;;;;1.88;0.45;;;;;;;;;;4984934;28;20072;-92
2021/10/15 14:32:56;;;;;;;3.20;0.40;;;;;;;;;;4994253;28;20026;-91
2021/10/15 14:35:22;;;;;;;2.58;1.00;;;;;;;;;;4991539;28;20042;-91
2021/10/15 14:37:48;;;;;;;2.22;0.50;;;;;;;;;;4993331;28;20034;-90
2021/10/15 14:40:14;;;;;;;2.33;0.50;;;;;;;;;;4992044;28;20037;-90
2021/10/15 14:42:40;;;;;;;2.72;0.40;;;;;;;;;;4992837;28;20022;-91
2021/10/15 14:45:06;;;;;;;0.40;0.22;;;;;;;;;;4993610;28;20034;-92
2021/10/15 14:47:32;;;;;;;4.25;0.40;;;;;;;;;;4991459;28;20022;-90
2021/10/15 14:49:58;;;;;;;1.65;0.45;;;;;;;;;;4987048;28;20080;-90
2021/10/15 14:52:23;;;;;;;3.45;0.43;;;;;;;;;;4995024;28;20037;-93
2021/10/15 14:54:48;;;;;;;1.25;0.50;;;;;;;;;;4994062;28;20030;-92
2021/10/15 14:57:15;;;;;;;0.40;0.30;;;;;;;;;;5010258;28;20018;-94
2021/10/15 14:59:43;;;;;;;0.77;0.30;;;;;;;;;;5013902;28;20033;-91
2021/10/15 15:02:09;;;;;;;0.40;0.17;;;;;;;;;;5012907;28;20034;-91
2021/10/15 15:04:35;;;;;;;1.52;0.40;;;;;;;;;;5013289;28;20064;-92
2021/10/15 15:07:00;;;;;;;0.50;0.30;;;;;;;;;;5012411;28;20112;-91
2021/10/15 15:09:26;;;;;;;1.15;0.28;;;;;;;;;;5013511;28;20543;-93
2021/10/15 15:11:51;;;;;;;0.65;0.35;;;;;;;;;;5014043;28;20053;-93
2021/10/15 15:14:17;;;;;;;2.22;0.57;;;;;;;;;;5012708;28;20058;-93
2021/10/15 15:16:42;;;;;;;1.20;0.32;;;;;;;;;;5012580;28;20037;-93